sensor_id;sensor_type;location;lat;lon;timestamp;pressure;altitude;pressure_sealevel;temperature;humidity
27144;BME280;14672;50.250;8.312;2023-05-09T00:00:19;99094.97;;;18.41;70.38
27144;BME280;14672;50.250;8.312;2023-05-09T00:02:45;99082.66;;;18.41;70.95
27144;BME280;14672;50.250;8.312;2023-05-09T00:05:11;99086.91;;;18.45;70.46
27144;BME280;14672;50.250;8.312;2023-05-09T00:07:37;99093.69;;;18.42;70.44
27144;BME280;14672;50.250;8.312;2023-05-09T00:10:03;99094.69;;;18.39;70.62
27144;BME280;14672;50.250;8.312;2023-05-09T00:12:29;99082.66;;;18.41;70.27
27144;BME280;14672;50.250;8.312;2023-05-09T00:14:55;99093.69;;;18.42;69.96
27144;BME280;14672;50.250;8.312;2023-05-09T00:17:22;99082.16;;;18.42;70.28
27144;BME280;14672;50.250;8.312;2023-05-09T00:19:49;99081.09;;;18.40;69.74
27144;BME280;14672;50.250;8.312;2023-05-09T00:22:19;99075.84;;;18.38;69.54
27144;BME280;14672;50.250;8.312;2023-05-09T00:24:48;99071.13;;;18.35;69.84
27144;BME280;14672;50.250;8.312;2023-05-09T00:27:15;99074.03;;;18.41;69.58
27144;BME280;14672;50.250;8.312;2023-05-09T00:29:42;99067.22;;;18.38;69.60
27144;BME280;14672;50.250;8.312;2023-05-09T00:32:08;99066.13;;;18.36;69.87
27144;BME280;14672;50.250;8.312;2023-05-09T00:34:34;99059.88;;;18.37;69.94
27144;BME280;14672;50.250;8.312;2023-05-09T00:36:59;99054.63;;;18.36;69.85
27144;BME280;14672;50.250;8.312;2023-05-09T00:39:26;99051.03;;;18.41;69.51
27144;BME280;14672;50.250;8.312;2023-05-09T00:41:52;99066.94;;;18.36;70.08
27144;BME280;14672;50.250;8.312;2023-05-09T00:44:17;99060.19;;;18.39;70.14
27144;BME280;14672;50.250;8.312;2023-05-09T00:46:43;99058.84;;;18.40;70.20
27144;BME280;14672;50.250;8.312;2023-05-09T00:49:10;99043.47;;;18.43;70.73
27144;BME280;14672;50.250;8.312;2023-05-09T00:51:39;99051.81;;;18.41;70.17
27144;BME280;14672;50.250;8.312;2023-05-09T00:54:06;99049.00;;;18.47;70.36
27144;BME280;14672;50.250;8.312;2023-05-09T00:56:32;99055.53;;;18.47;70.55
27144;BME280;14672;50.250;8.312;2023-05-09T00:58:58;99048.03;;;18.55;70.47
27144;BME280;14672;50.250;8.312;2023-05-09T01:01:24;99045.16;;;18.55;70.39
27144;BME280;14672;50.250;8.312;2023-05-09T01:03:51;99041.00;;;18.56;70.85
27144;BME280;14672;50.250;8.312;2023-05-09T01:06:37;99045.16;;;18.55;70.67
27144;BME280;14672;50.250;8.312;2023-05-09T01:09:31;99035.81;;;18.60;70.82
27144;BME280;14672;50.250;8.312;2023-05-09T01:15:01;99028.25;;;18.63;71.08
27144;BME280;14672;50.250;8.312;2023-05-09T01:18:10;99030.03;;;18.60;71.13
27144;BME280;14672;50.250;8.312;2023-05-09T01:20:45;99020.91;;;18.62;70.51
27144;BME280;14672;50.250;8.312;2023-05-09T01:23:50;99023.00;;;18.61;70.72
27144;BME280;14672;50.250;8.312;2023-05-09T01:29:43;99021.66;;;18.57;71.52
27144;BME280;14672;50.250;8.312;2023-05-09T01:32:16;99014.06;;;18.59;70.78
27144;BME280;14672;50.250;8.312;2023-05-09T01:34:44;99008.63;;;18.61;70.14
27144;BME280;14672;50.250;8.312;2023-05-09T01:37:16;99003.66;;;18.62;70.42
27144;BME280;14672;50.250;8.312;2023-05-09T01:39:48;99007.88;;;18.66;70.24
27144;BME280;14672;50.250;8.312;2023-05-09T01:42:19;99001.81;;;18.64;70.01
27144;BME280;14672;50.250;8.312;2023-05-09T01:44:46;99000.03;;;18.67;69.90
27144;BME280;14672;50.250;8.312;2023-05-09T01:47:14;99005.22;;;18.63;70.08
27144;BME280;14672;50.250;8.312;2023-05-09T01:49:42;98993.72;;;18.63;70.22
27144;BME280;14672;50.250;8.312;2023-05-09T01:52:12;98990.31;;;18.64;70.06
27144;BME280;14672;50.250;8.312;2023-05-09T01:54:39;98997.09;;;18.61;69.91
27144;BME280;14672;50.250;8.312;2023-05-09T01:57:07;98996.03;;;18.59;70.34
27144;BME280;14672;50.250;8.312;2023-05-09T01:59:36;98991.91;;;18.65;69.93
27144;BME280;14672;50.250;8.312;2023-05-09T02:02:03;98987.72;;;18.66;69.69
27144;BME280;14672;50.250;8.312;2023-05-09T02:04:31;98984.81;;;18.61;69.53
27144;BME280;14672;50.250;8.312;2023-05-09T02:07:03;98983.97;;;18.55;70.14
27144;BME280;14672;50.250;8.312;2023-05-09T02:09:30;98981.88;;;18.55;69.93
27144;BME280;14672;50.250;8.312;2023-05-09T02:11:56;98988.94;;;18.54;69.73
27144;BME280;14672;50.250;8.312;2023-05-09T02:14:22;98982.41;;;18.59;70.00
27144;BME280;14672;50.250;8.312;2023-05-09T02:16:48;98991.81;;;18.54;70.06
27144;BME280;14672;50.250;8.312;2023-05-09T02:19:14;98983.75;;;18.58;69.93
27144;BME280;14672;50.250;8.312;2023-05-09T02:21:41;98986.28;;;18.51;69.95
27144;BME280;14672;50.250;8.312;2023-05-09T02:24:10;98979.00;;;18.55;69.67
27144;BME280;14672;50.250;8.312;2023-05-09T02:26:36;98979.22;;;18.52;69.69
27144;BME280;14672;50.250;8.312;2023-05-09T02:29:05;98978.72;;;18.53;69.51
27144;BME280;14672;50.250;8.312;2023-05-09T02:31:33;98980.31;;;18.54;69.23
27144;BME280;14672;50.250;8.312;2023-05-09T02:34:01;98973.53;;;18.57;69.21
27144;BME280;14672;50.250;8.312;2023-05-09T02:36:29;98984.47;;;18.53;69.32
27144;BME280;14672;50.250;8.312;2023-05-09T02:38:56;98984.16;;;18.51;69.57
27144;BME280;14672;50.250;8.312;2023-05-09T02:41:22;98984.16;;;18.51;69.16
27144;BME280;14672;50.250;8.312;2023-05-09T02:43:47;98986.47;;;18.47;69.54
27144;BME280;14672;50.250;8.312;2023-05-09T02:46:13;98989.09;;;18.45;69.77
27144;BME280;14672;50.250;8.312;2023-05-09T02:48:39;98982.31;;;18.48;69.75
27144;BME280;14672;50.250;8.312;2023-05-09T02:51:05;98979.22;;;18.52;69.15
27144;BME280;14672;50.250;8.312;2023-05-09T02:53:31;98969.84;;;18.57;68.97
27144;BME280;14672;50.250;8.312;2023-05-09T02:55:57;98983.19;;;18.54;69.19
27144;BME280;14672;50.250;8.312;2023-05-09T02:58:23;98969.44;;;18.44;69.80
27144;BME280;14672;50.250;8.312;2023-05-09T03:00:48;98972.28;;;18.38;69.83
27144;BME280;14672;50.250;8.312;2023-05-09T03:03:14;98967.56;;;18.35;69.61
27144;BME280;14672;50.250;8.312;2023-05-09T03:05:42;98969.31;;;18.27;70.09
27144;BME280;14672;50.250;8.312;2023-05-09T03:08:08;98966.22;;;18.30;69.50
27144;BME280;14672;50.250;8.312;2023-05-09T03:10:33;98961.69;;;18.24;69.82
27144;BME280;14672;50.250;8.312;2023-05-09T03:13:00;98955.38;;;18.20;69.95
27144;BME280;14672;50.250;8.312;2023-05-09T03:15:25;98941.53;;;18.18;69.44
27144;BME280;14672;50.250;8.312;2023-05-09T03:17:51;98941.78;;;18.15;69.53
27144;BME280;14672;50.250;8.312;2023-05-09T03:20:24;98946.16;;;18.10;69.26
27144;BME280;14672;50.250;8.312;2023-05-09T03:22:50;98941.47;;;18.13;69.51
27144;BME280;14672;50.250;8.312;2023-05-09T03:25:15;98946.41;;;18.07;68.86
27144;BME280;14672;50.250;8.312;2023-05-09T03:27:41;98945.13;;;18.13;69.11
27144;BME280;14672;50.250;8.312;2023-05-09T03:30:08;98947.69;;;18.06;70.09
27144;BME280;14672;50.250;8.312;2023-05-09T03:32:33;98938.75;;;18.04;69.63
27144;BME280;14672;50.250;8.312;2023-05-09T03:34:59;98935.88;;;18.04;69.56
27144;BME280;14672;50.250;8.312;2023-05-09T03:37:25;98930.94;;;18.04;69.93
27144;BME280;14672;50.250;8.312;2023-05-09T03:39:51;98932.97;;;17.98;69.38
27144;BME280;14672;50.250;8.312;2023-05-09T03:42:16;98941.88;;;18.00;69.99
27144;BME280;14672;50.250;8.312;2023-05-09T03:44:45;98937.94;;;17.98;69.87
27144;BME280;14672;50.250;8.312;2023-05-09T03:47:11;98929.56;;;18.00;69.88
27144;BME280;14672;50.250;8.312;2023-05-09T03:49:37;98934.19;;;17.92;69.97
27144;BME280;14672;50.250;8.312;2023-05-09T03:52:03;98930.59;;;17.97;70.14
27144;BME280;14672;50.250;8.312;2023-05-09T03:54:28;98924.28;;;17.93;70.09
27144;BME280;14672;50.250;8.312;2023-05-09T03:56:54;98918.28;;;17.91;70.49
27144;BME280;14672;50.250;8.312;2023-05-09T03:59:20;98912.78;;;17.93;70.74
27144;BME280;14672;50.250;8.312;2023-05-09T04:01:46;98919.91;;;17.97;70.60
27144;BME280;14672;50.250;8.312;2023-05-09T04:04:12;98925.41;;;18.01;70.45
27144;BME280;14672;50.250;8.312;2023-05-09T04:06:38;98924.06;;;17.96;70.38
27144;BME280;14672;50.250;8.312;2023-05-09T04:09:04;98916.00;;;18.00;70.51
27144;BME280;14672;50.250;8.312;2023-05-09T04:11:30;98918.06;;;18.00;70.69
27144;BME280;14672;50.250;8.312;2023-05-09T04:13:56;98923.81;;;18.00;70.95
27144;BME280;14672;50.250;8.312;2023-05-09T04:16:21;98918.06;;;18.00;71.06
27144;BME280;14672;50.250;8.312;2023-05-09T04:18:47;98918.38;;;18.02;70.89
27144;BME280;14672;50.250;8.312;2023-05-09T04:21:13;98917.09;;;18.03;70.85
27144;BME280;14672;50.250;8.312;2023-05-09T04:23:39;98921.25;;;18.02;71.21
27144;BME280;14672;50.250;8.312;2023-05-09T04:26:04;98926.50;;;18.03;70.91
27144;BME280;14672;50.250;8.312;2023-05-09T04:28:30;98923.34;;;18.01;71.31
27144;BME280;14672;50.250;8.312;2023-05-09T04:30:56;98920.22;;;18.05;70.94
27144;BME280;14672;50.250;8.312;2023-05-09T04:33:22;98925.50;;;18.12;70.66
27144;BME280;14672;50.250;8.312;2023-05-09T04:35:51;98918.94;;;18.06;70.58
27144;BME280;14672;50.250;8.312;2023-05-09T04:38:17;98920.19;;;17.99;70.42
27144;BME280;14672;50.250;8.312;2023-05-09T04:40:43;98917.81;;;17.98;70.43
27144;BME280;14672;50.250;8.312;2023-05-09T04:43:09;98924.38;;;18.04;69.70
27144;BME280;14672;50.250;8.312;2023-05-09T04:45:35;98913.69;;;18.04;70.32
27144;BME280;14672;50.250;8.312;2023-05-09T04:48:00;98919.66;;;18.01;70.41
27144;BME280;14672;50.250;8.312;2023-05-09T04:50:29;98902.50;;;18.12;69.78
27144;BME280;14672;50.250;8.312;2023-05-09T04:52:55;98899.59;;;18.06;69.97
27144;BME280;14672;50.250;8.312;2023-05-09T04:55:20;98904.56;;;18.06;70.38
27144;BME280;14672;50.250;8.312;2023-05-09T04:57:46;98901.38;;;18.04;70.99
27144;BME280;14672;50.250;8.312;2023-05-09T05:00:12;98894.91;;;18.09;70.61
27144;BME280;14672;50.250;8.312;2023-05-09T05:02:39;98885.56;;;18.19;70.72
27144;BME280;14672;50.250;8.312;2023-05-09T05:05:05;98888.44;;;18.14;71.27
27144;BME280;14672;50.250;8.312;2023-05-09T05:07:31;98887.63;;;18.13;71.70
27144;BME280;14672;50.250;8.312;2023-05-09T05:09:57;98879.88;;;18.25;70.98
27144;BME280;14672;50.250;8.312;2023-05-09T05:12:23;98884.91;;;18.36;71.19
27144;BME280;14672;50.250;8.312;2023-05-09T05:14:48;98880.81;;;18.42;71.08
27144;BME280;14672;50.250;8.312;2023-05-09T05:17:14;98883.94;;;18.44;71.30
27144;BME280;14672;50.250;8.312;2023-05-09T05:19:42;98887.16;;;18.52;71.17
27144;BME280;14672;50.250;8.312;2023-05-09T05:22:08;98873.63;;;18.63;70.91
27144;BME280;14672;50.250;8.312;2023-05-09T05:24:34;98875.75;;;18.68;71.00
27144;BME280;14672;50.250;8.312;2023-05-09T05:27:00;98873.47;;;18.78;70.55
27144;BME280;14672;50.250;8.312;2023-05-09T05:29:26;98883.75;;;18.90;70.53
27144;BME280;14672;50.250;8.312;2023-05-09T05:31:51;98868.22;;;18.76;70.52
27144;BME280;14672;50.250;8.312;2023-05-09T05:34:17;98867.25;;;18.96;69.79
27144;BME280;14672;50.250;8.312;2023-05-09T05:36:43;98866.00;;;19.03;70.21
27144;BME280;14672;50.250;8.312;2023-05-09T05:39:08;98861.31;;;19.11;70.11
27144;BME280;14672;50.250;8.312;2023-05-09T05:41:34;98862.06;;;19.00;69.79
27144;BME280;14672;50.250;8.312;2023-05-09T05:44:00;98863.97;;;19.20;69.99
27144;BME280;14672;50.250;8.312;2023-05-09T05:46:26;98856.31;;;19.06;69.53
27144;BME280;14672;50.250;8.312;2023-05-09T05:48:52;98861.84;;;19.15;69.37
27144;BME280;14672;50.250;8.312;2023-05-09T05:51:17;98859.03;;;19.32;69.00
27144;BME280;14672;50.250;8.312;2023-05-09T05:53:43;98866.34;;;19.21;68.75
27144;BME280;14672;50.250;8.312;2023-05-09T05:56:09;98855.09;;;19.29;69.01
27144;BME280;14672;50.250;8.312;2023-05-09T05:58:34;98866.38;;;19.38;68.59
27144;BME280;14672;50.250;8.312;2023-05-09T06:01:00;98862.44;;;19.30;68.76
27144;BME280;14672;50.250;8.312;2023-05-09T06:03:26;98846.44;;;19.29;68.72
27144;BME280;14672;50.250;8.312;2023-05-09T06:05:55;98859.81;;;19.32;68.45
27144;BME280;14672;50.250;8.312;2023-05-09T06:08:21;98859.88;;;19.43;67.80
27144;BME280;14672;50.250;8.312;2023-05-09T06:10:47;98852.03;;;19.49;67.74
27144;BME280;14672;50.250;8.312;2023-05-09T06:13:13;98860.69;;;19.49;67.66
27144;BME280;14672;50.250;8.312;2023-05-09T06:15:39;98841.56;;;19.57;67.67
27144;BME280;14672;50.250;8.312;2023-05-09T06:18:05;98844.47;;;19.68;67.06
27144;BME280;14672;50.250;8.312;2023-05-09T06:20:30;98848.41;;;19.77;67.45
27144;BME280;14672;50.250;8.312;2023-05-09T06:22:56;98844.22;;;19.78;67.54
27144;BME280;14672;50.250;8.312;2023-05-09T06:25:22;98843.69;;;19.85;67.13
27144;BME280;14672;50.250;8.312;2023-05-09T06:27:48;98836.63;;;19.91;66.96
27144;BME280;14672;50.250;8.312;2023-05-09T06:30:13;98836.09;;;19.93;67.03
27144;BME280;14672;50.250;8.312;2023-05-09T06:32:39;98838.19;;;20.09;66.61
27144;BME280;14672;50.250;8.312;2023-05-09T06:35:05;98833.75;;;20.02;66.93
27144;BME280;14672;50.250;8.312;2023-05-09T06:37:34;98831.13;;;20.21;66.71
27144;BME280;14672;50.250;8.312;2023-05-09T06:40:00;98827.72;;;20.17;66.13
27144;BME280;14672;50.250;8.312;2023-05-09T06:42:26;98826.66;;;20.20;65.59
27144;BME280;14672;50.250;8.312;2023-05-09T06:44:53;98823.75;;;20.20;65.82
27144;BME280;14672;50.250;8.312;2023-05-09T06:47:18;98824.28;;;20.24;66.09
27144;BME280;14672;50.250;8.312;2023-05-09T06:49:44;98825.34;;;20.21;65.37
27144;BME280;14672;50.250;8.312;2023-05-09T06:52:10;98826.41;;;20.18;65.76
27144;BME280;14672;50.250;8.312;2023-05-09T06:54:40;98822.22;;;20.30;65.21
27144;BME280;14672;50.250;8.312;2023-05-09T06:57:06;98820.09;;;20.36;65.31
27144;BME280;14672;50.250;8.312;2023-05-09T06:59:32;98819.31;;;20.36;65.11
27144;BME280;14672;50.250;8.312;2023-05-09T07:01:58;98816.97;;;20.34;65.31
27144;BME280;14672;50.250;8.312;2023-05-09T07:04:24;98803.59;;;20.37;64.88
27144;BME280;14672;50.250;8.312;2023-05-09T07:06:49;98803.53;;;20.42;64.78
27144;BME280;14672;50.250;8.312;2023-05-09T07:09:15;98800.66;;;20.42;65.07
27144;BME280;14672;50.250;8.312;2023-05-09T07:11:45;98779.16;;;20.43;65.20
27144;BME280;14672;50.250;8.312;2023-05-09T07:14:10;98782.31;;;20.45;64.79
27144;BME280;14672;50.250;8.312;2023-05-09T07:16:36;98780.47;;;20.48;64.75
27144;BME280;14672;50.250;8.312;2023-05-09T07:19:02;98791.22;;;20.47;65.19
27144;BME280;14672;50.250;8.312;2023-05-09T07:21:28;98780.22;;;20.40;65.22
27144;BME280;14672;50.250;8.312;2023-05-09T07:23:53;98786.00;;;20.40;64.53
27144;BME280;14672;50.250;8.312;2023-05-09T07:26:19;98790.19;;;20.39;64.29
27144;BME280;14672;50.250;8.312;2023-05-09T07:28:45;98798.84;;;20.39;64.24
27144;BME280;14672;50.250;8.312;2023-05-09T07:31:11;98789.91;;;20.43;64.52
27144;BME280;14672;50.250;8.312;2023-05-09T07:33:37;98790.69;;;20.43;64.36
27144;BME280;14672;50.250;8.312;2023-05-09T07:36:03;98781.28;;;20.37;64.74
27144;BME280;14672;50.250;8.312;2023-05-09T07:38:29;98769.19;;;20.44;64.69
27144;BME280;14672;50.250;8.312;2023-05-09T07:40:54;98773.66;;;20.40;64.97
27144;BME280;14672;50.250;8.312;2023-05-09T07:43:20;98770.00;;;20.39;65.24
27144;BME280;14672;50.250;8.312;2023-05-09T07:45:46;98768.91;;;20.53;64.76
27144;BME280;14672;50.250;8.312;2023-05-09T07:48:12;98766.53;;;20.52;64.79
27144;BME280;14672;50.250;8.312;2023-05-09T07:50:38;98774.16;;;20.49;65.31
27144;BME280;14672;50.250;8.312;2023-05-09T07:53:04;98766.03;;;20.53;65.05
27144;BME280;14672;50.250;8.312;2023-05-09T07:55:31;98775.25;;;20.35;65.15
27144;BME280;14672;50.250;8.312;2023-05-09T07:57:57;98762.63;;;20.38;64.42
27144;BME280;14672;50.250;8.312;2023-05-09T08:00:23;98758.44;;;20.45;64.46
27144;BME280;14672;50.250;8.312;2023-05-09T08:02:52;98748.97;;;20.50;64.88
27144;BME280;14672;50.250;8.312;2023-05-09T08:05:18;98746.63;;;20.48;64.63
27144;BME280;14672;50.250;8.312;2023-05-09T08:07:47;98745.03;;;20.47;64.95
27144;BME280;14672;50.250;8.312;2023-05-09T08:10:13;98742.88;;;20.70;64.58
27144;BME280;14672;50.250;8.312;2023-05-09T08:12:39;98741.81;;;20.68;64.63
27144;BME280;14672;50.250;8.312;2023-05-09T08:15:05;98724.31;;;20.49;64.38
27144;BME280;14672;50.250;8.312;2023-05-09T08:17:31;98724.75;;;20.70;64.22
27144;BME280;14672;50.250;8.312;2023-05-09T08:19:57;98720.81;;;20.73;64.18
27144;BME280;14672;50.250;8.312;2023-05-09T08:22:23;98724.16;;;20.82;64.21
27144;BME280;14672;50.250;8.312;2023-05-09T08:24:49;98709.41;;;20.91;63.84
27144;BME280;14672;50.250;8.312;2023-05-09T08:27:17;98716.25;;;20.88;63.82
27144;BME280;14672;50.250;8.312;2023-05-09T08:29:43;98702.28;;;20.98;64.03
27144;BME280;14672;50.250;8.312;2023-05-09T08:32:09;98706.22;;;21.00;64.12
27144;BME280;14672;50.250;8.312;2023-05-09T08:34:35;98705.59;;;21.19;63.48
27144;BME280;14672;50.250;8.312;2023-05-09T08:37:02;98703.47;;;21.19;63.06
27144;BME280;14672;50.250;8.312;2023-05-09T08:39:29;98702.47;;;21.17;63.15
27144;BME280;14672;50.250;8.312;2023-05-09T08:42:00;98691.69;;;21.17;63.74
27144;BME280;14672;50.250;8.312;2023-05-09T08:44:28;98688.75;;;21.23;63.77
27144;BME280;14672;50.250;8.312;2023-05-09T08:46:58;98689.53;;;21.23;63.88
27144;BME280;14672;50.250;8.312;2023-05-09T08:49:25;98692.69;;;21.25;63.16
27144;BME280;14672;50.250;8.312;2023-05-09T08:51:51;98692.38;;;21.29;63.31
27144;BME280;14672;50.250;8.312;2023-05-09T08:54:17;98681.94;;;21.20;63.93
27144;BME280;14672;50.250;8.312;2023-05-09T08:56:43;98692.88;;;21.33;63.04
27144;BME280;14672;50.250;8.312;2023-05-09T08:59:09;98678.94;;;21.37;62.61
27144;BME280;14672;50.250;8.312;2023-05-09T09:01:35;98677.59;;;21.38;62.71
27144;BME280;14672;50.250;8.312;2023-05-09T09:04:08;98680.28;;;21.30;62.46
27144;BME280;14672;50.250;8.312;2023-05-09T09:06:34;98679.72;;;21.37;63.36
27144;BME280;14672;50.250;8.312;2023-05-09T09:09:01;98683.38;;;21.38;63.35
27144;BME280;14672;50.250;8.312;2023-05-09T09:11:31;98672.34;;;21.01;64.01
27144;BME280;14672;50.250;8.312;2023-05-09T09:14:10;98675.00;;;21.34;63.52
27144;BME280;14672;50.250;8.312;2023-05-09T09:16:37;98675.34;;;21.25;63.45
27144;BME280;14672;50.250;8.312;2023-05-09T09:19:11;98670.56;;;21.33;63.92
27144;BME280;14672;50.250;8.312;2023-05-09T09:21:40;98680.53;;;21.32;64.05
27144;BME280;14672;50.250;8.312;2023-05-09T09:24:12;98668.69;;;21.36;63.54
27144;BME280;14672;50.250;8.312;2023-05-09T09:26:46;98660.50;;;21.40;63.44
27144;BME280;14672;50.250;8.312;2023-05-09T09:29:13;98665.47;;;21.45;63.69
27144;BME280;14672;50.250;8.312;2023-05-09T09:31:46;98657.81;;;21.47;63.61
27144;BME280;14672;50.250;8.312;2023-05-09T09:34:20;98664.81;;;21.28;64.77
27144;BME280;14672;50.250;8.312;2023-05-09T09:36:46;98666.81;;;21.38;63.54
27144;BME280;14672;50.250;8.312;2023-05-09T09:39:13;98660.34;;;21.27;63.45
27144;BME280;14672;50.250;8.312;2023-05-09T09:41:40;98660.25;;;21.38;62.96
27144;BME280;14672;50.250;8.312;2023-05-09T09:44:18;98652.53;;;21.22;63.05
27144;BME280;14672;50.250;8.312;2023-05-09T09:46:53;98650.56;;;21.35;62.49
27144;BME280;14672;50.250;8.312;2023-05-09T09:49:24;98648.88;;;21.16;63.01
27144;BME280;14672;50.250;8.312;2023-05-09T09:51:56;98640.41;;;21.23;63.00
27144;BME280;14672;50.250;8.312;2023-05-09T09:54:25;98643.28;;;21.29;63.25
27144;BME280;14672;50.250;8.312;2023-05-09T09:56:53;98634.00;;;21.36;62.58
27144;BME280;14672;50.250;8.312;2023-05-09T09:59:24;98635.69;;;21.26;63.28
27144;BME280;14672;50.250;8.312;2023-05-09T10:04:29;98628.41;;;21.43;64.13
27144;BME280;14672;50.250;8.312;2023-05-09T10:06:57;98623.75;;;21.35;64.02
27144;BME280;14672;50.250;8.312;2023-05-09T10:09:25;98620.84;;;21.40;64.42
27144;BME280;14672;50.250;8.312;2023-05-09T10:11:52;98609.88;;;21.33;64.16
27144;BME280;14672;50.250;8.312;2023-05-09T10:14:24;98628.22;;;21.36;64.61
27144;BME280;14672;50.250;8.312;2023-05-09T10:16:54;98622.75;;;21.32;64.77
27144;BME280;14672;50.250;8.312;2023-05-09T10:19:25;98611.47;;;21.29;64.65
27144;BME280;14672;50.250;8.312;2023-05-09T10:21:57;98610.19;;;21.24;64.31
27144;BME280;14672;50.250;8.312;2023-05-09T10:24:55;98609.72;;;21.20;64.42
27144;BME280;14672;50.250;8.312;2023-05-09T10:27:30;98601.88;;;21.15;64.87
27144;BME280;14672;50.250;8.312;2023-05-09T10:30:05;98594.00;;;21.10;64.76
27144;BME280;14672;50.250;8.312;2023-05-09T10:32:40;98595.00;;;21.18;64.61
27144;BME280;14672;50.250;8.312;2023-05-09T10:35:09;98587.63;;;21.23;64.25
27144;BME280;14672;50.250;8.312;2023-05-09T10:37:39;98599.75;;;21.16;64.42
27144;BME280;14672;50.250;8.312;2023-05-09T10:40:06;98584.84;;;21.06;64.55
27144;BME280;14672;50.250;8.312;2023-05-09T10:42:35;98575.91;;;21.09;64.74
27144;BME280;14672;50.250;8.312;2023-05-09T10:45:02;98582.41;;;20.86;65.34
27144;BME280;14672;50.250;8.312;2023-05-09T10:47:28;98572.06;;;20.96;65.00
27144;BME280;14672;50.250;8.312;2023-05-09T10:49:57;98576.66;;;21.10;64.46
27144;BME280;14672;50.250;8.312;2023-05-09T10:52:23;98564.19;;;21.26;64.59
27144;BME280;14672;50.250;8.312;2023-05-09T10:54:59;98556.75;;;21.36;65.02
27144;BME280;14672;50.250;8.312;2023-05-09T10:57:30;98559.53;;;21.47;64.26
27144;BME280;14672;50.250;8.312;2023-05-09T10:59:58;98552.09;;;21.58;64.03
27144;BME280;14672;50.250;8.312;2023-05-09T11:02:24;98546.00;;;21.61;63.81
27144;BME280;14672;50.250;8.312;2023-05-09T11:05:16;98542.03;;;21.83;64.20
27144;BME280;14672;50.250;8.312;2023-05-09T11:07:43;98538.69;;;21.79;62.85
27144;BME280;14672;50.250;8.312;2023-05-09T11:10:17;98527.59;;;21.83;63.18
27144;BME280;14672;50.250;8.312;2023-05-09T11:12:58;98532.28;;;21.86;62.80
27144;BME280;14672;50.250;8.312;2023-05-09T11:15:25;98532.03;;;21.65;62.14
27144;BME280;14672;50.250;8.312;2023-05-09T11:18:09;98525.94;;;21.69;61.32
27144;BME280;14672;50.250;8.312;2023-05-09T11:20:42;98528.56;;;21.67;62.34
27144;BME280;14672;50.250;8.312;2023-05-09T11:23:09;98525.31;;;21.76;62.03
27144;BME280;14672;50.250;8.312;2023-05-09T11:25:38;98530.56;;;21.77;61.75
27144;BME280;14672;50.250;8.312;2023-05-09T11:28:04;98524.47;;;21.81;61.52
27144;BME280;14672;50.250;8.312;2023-05-09T11:30:42;98518.84;;;21.88;62.00
27144;BME280;14672;50.250;8.312;2023-05-09T11:33:23;98514.09;;;21.67;62.38
27144;BME280;14672;50.250;8.312;2023-05-09T11:39:10;98497.53;;;21.91;62.33
27144;BME280;14672;50.250;8.312;2023-05-09T11:41:42;98497.66;;;21.80;62.58
27144;BME280;14672;50.250;8.312;2023-05-09T11:44:19;98496.16;;;21.74;63.16
27144;BME280;14672;50.250;8.312;2023-05-09T11:46:47;98496.34;;;21.81;62.84
27144;BME280;14672;50.250;8.312;2023-05-09T11:49:14;98493.50;;;21.76;63.20
27144;BME280;14672;50.250;8.312;2023-05-09T11:51:40;98493.72;;;21.78;63.31
27144;BME280;14672;50.250;8.312;2023-05-09T11:54:07;98498.50;;;21.75;64.54
27144;BME280;14672;50.250;8.312;2023-05-09T11:56:38;98494.28;;;21.76;65.07
27144;BME280;14672;50.250;8.312;2023-05-09T11:59:05;98496.38;;;21.57;66.68
27144;BME280;14672;50.250;8.312;2023-05-09T12:01:32;98486.44;;;21.52;67.34
27144;BME280;14672;50.250;8.312;2023-05-09T12:03:58;98488.50;;;21.58;67.59
27144;BME280;14672;50.250;8.312;2023-05-09T12:06:24;98483.41;;;21.64;67.53
27144;BME280;14672;50.250;8.312;2023-05-09T12:08:51;98470.38;;;21.76;67.54
27144;BME280;14672;50.250;8.312;2023-05-09T12:11:17;98471.16;;;21.76;67.89
27144;BME280;14672;50.250;8.312;2023-05-09T12:13:45;98470.31;;;21.81;68.44
27144;BME280;14672;50.250;8.312;2023-05-09T12:16:11;98463.31;;;21.95;69.19
27144;BME280;14672;50.250;8.312;2023-05-09T12:18:37;98456.19;;;22.15;69.35
27144;BME280;14672;50.250;8.312;2023-05-09T12:21:03;98454.47;;;22.25;68.96
27144;BME280;14672;50.250;8.312;2023-05-09T12:23:34;98449.06;;;22.16;67.46
27144;BME280;14672;50.250;8.312;2023-05-09T12:26:00;98439.44;;;22.27;66.96
27144;BME280;14672;50.250;8.312;2023-05-09T12:28:26;98444.75;;;22.23;66.88
27144;BME280;14672;50.250;8.312;2023-05-09T12:30:53;98439.56;;;22.34;67.05
27144;BME280;14672;50.250;8.312;2023-05-09T12:33:19;98428.91;;;22.42;67.04
27144;BME280;14672;50.250;8.312;2023-05-09T12:35:47;98418.97;;;22.57;65.87
27144;BME280;14672;50.250;8.312;2023-05-09T12:38:22;98414.63;;;22.63;65.61
27144;BME280;14672;50.250;8.312;2023-05-09T12:41:03;98413.44;;;22.72;64.58
27144;BME280;14672;50.250;8.312;2023-05-09T12:43:37;98403.97;;;22.71;64.84
27144;BME280;14672;50.250;8.312;2023-05-09T12:46:04;98402.19;;;22.81;63.48
27144;BME280;14672;50.250;8.312;2023-05-09T12:48:38;98395.97;;;22.90;63.12
27144;BME280;14672;50.250;8.312;2023-05-09T12:51:05;98391.41;;;22.82;62.72
27144;BME280;14672;50.250;8.312;2023-05-09T12:53:39;98386.41;;;22.96;63.44
27144;BME280;14672;50.250;8.312;2023-05-09T12:56:17;98386.06;;;22.99;62.96
27144;BME280;14672;50.250;8.312;2023-05-09T12:58:55;98378.03;;;22.79;62.46
27144;BME280;14672;50.250;8.312;2023-05-09T13:01:26;98377.06;;;23.03;62.25
27144;BME280;14672;50.250;8.312;2023-05-09T13:04:01;98375.59;;;23.09;64.34
27144;BME280;14672;50.250;8.312;2023-05-09T13:06:27;98372.13;;;22.98;62.71
27144;BME280;14672;50.250;8.312;2023-05-09T13:09:00;98375.16;;;23.05;63.00
27144;BME280;14672;50.250;8.312;2023-05-09T13:11:27;98367.69;;;23.23;61.94
27144;BME280;14672;50.250;8.312;2023-05-09T13:13:54;98376.28;;;23.15;61.96
27144;BME280;14672;50.250;8.312;2023-05-09T13:16:20;98348.63;;;23.14;61.25